Time;durP1;ratioP1;P1;durP2;ratioP2;P2;SDS_P1;SDS_P2;PMS_P1;PMS_P2;Temp;Humidity;BMP_temperature;BMP_pressure;BME280_temperature;BME280_humidity;BME280_pressure;Samples;Min_cycle;Max_cycle;Signal;HPM_P1;HPM_P2
2023/12/13 00:01:36;;;;;;;5.80;4.03;;;;;;;;;;5000845;28;20686;-73
2023/12/13 00:04:04;;;;;;;6.57;4.03;;;;;;;;;;5001079;28;20251;-73
2023/12/13 00:06:34;;;;;;;5.10;3.40;;;;;;;;;;5000816;28;20209;-73
2023/12/13 00:09:02;;;;;;;6.10;3.67;;;;;;;;;;5001221;28;20248;-74
2023/12/13 00:11:31;;;;;;;4.50;2.87;;;;;;;;;;4998041;28;20209;-73
2023/12/13 00:14:01;;;;;;;5.27;3.30;;;;;;;;;;5000699;28;20207;-74
2023/12/13 00:16:29;;;;;;;4.30;3.07;;;;;;;;;;5001376;28;20671;-74
2023/12/13 00:18:57;;;;;;;5.77;2.83;;;;;;;;;;5001135;28;20343;-73
2023/12/13 00:21:26;;;;;;;5.53;3.20;;;;;;;;;;5001294;28;20209;-74
2023/12/13 00:23:54;;;;;;;4.20;2.77;;;;;;;;;;5000322;28;20224;-74
2023/12/13 00:26:23;;;;;;;4.33;3.07;;;;;;;;;;4999619;28;20537;-74
2023/12/13 00:28:52;;;;;;;5.50;3.90;;;;;;;;;;5000526;28;20264;-74
2023/12/13 00:31:21;;;;;;;5.10;3.50;;;;;;;;;;5000955;28;20692;-74
2023/12/13 00:33:50;;;;;;;5.77;3.23;;;;;;;;;;5000419;28;20301;-73
2023/12/13 00:36:18;;;;;;;4.60;3.20;;;;;;;;;;5000631;28;20622;-73
2023/12/13 00:38:46;;;;;;;5.53;3.57;;;;;;;;;;5001209;28;20264;-73
2023/12/13 00:41:14;;;;;;;3.77;3.00;;;;;;;;;;5004250;28;20209;-73
2023/12/13 00:43:43;;;;;;;5.03;3.13;;;;;;;;;;5002254;28;20225;-73
2023/12/13 00:46:14;;;;;;;3.17;2.70;;;;;;;;;;5000870;28;20220;-73
2023/12/13 00:48:44;;;;;;;4.60;2.90;;;;;;;;;;4996847;28;20220;-73
2023/12/13 00:51:16;;;;;;;2.63;2.43;;;;;;;;;;4996065;28;20233;-73
2023/12/13 00:53:44;;;;;;;2.73;2.43;;;;;;;;;;5000166;28;20198;-73
2023/12/13 00:56:12;;;;;;;4.40;2.67;;;;;;;;;;4996934;28;20715;-73
2023/12/13 00:58:42;;;;;;;3.27;2.87;;;;;;;;;;5000163;28;20201;-73
2023/12/13 01:01:11;;;;;;;3.17;2.87;;;;;;;;;;5000415;28;20209;-73
2023/12/13 01:03:39;;;;;;;6.40;2.90;;;;;;;;;;5000078;28;20217;-73
2023/12/13 01:06:09;;;;;;;5.23;3.40;;;;;;;;;;4999992;28;20229;-73
2023/12/13 01:08:38;;;;;;;7.13;3.80;;;;;;;;;;5000334;28;20205;-73
2023/12/13 01:11:10;;;;;;;4.50;3.37;;;;;;;;;;5000189;28;20260;-73
2023/12/13 01:13:38;;;;;;;9.23;3.60;;;;;;;;;;4999978;28;20193;-73
2023/12/13 01:16:07;;;;;;;5.13;3.83;;;;;;;;;;5000315;28;20307;-73
2023/12/13 01:18:35;;;;;;;6.27;4.20;;;;;;;;;;4999731;28;20207;-73
2023/12/13 01:21:03;;;;;;;4.27;3.57;;;;;;;;;;4998567;28;20279;-73
2023/12/13 01:23:33;;;;;;;5.33;3.77;;;;;;;;;;4999604;28;20235;-73
2023/12/13 01:26:01;;;;;;;5.80;3.90;;;;;;;;;;4999792;28;20233;-74
2023/12/13 01:28:29;;;;;;;6.00;3.80;;;;;;;;;;4999584;28;20205;-73
2023/12/13 01:30:58;;;;;;;5.57;3.77;;;;;;;;;;4999948;28;20292;-73
2023/12/13 01:33:26;;;;;;;5.20;3.83;;;;;;;;;;4996444;28;20193;-73
2023/12/13 01:35:55;;;;;;;6.30;3.83;;;;;;;;;;4999399;28;20804;-73
2023/12/13 01:38:22;;;;;;;5.27;3.63;;;;;;;;;;4999414;28;20316;-74
2023/12/13 01:40:52;;;;;;;4.53;3.60;;;;;;;;;;4999465;28;20660;-74
2023/12/13 01:43:40;;;;;;;5.37;3.70;;;;;;;;;;4997678;28;20251;-74
2023/12/13 01:46:09;;;;;;;6.27;4.13;;;;;;;;;;4999442;28;20731;-73
2023/12/13 01:48:38;;;;;;;5.53;4.20;;;;;;;;;;4999434;28;20207;-74
2023/12/13 01:51:06;;;;;;;4.10;3.70;;;;;;;;;;4999167;28;20271;-74
2023/12/13 01:53:35;;;;;;;5.10;4.23;;;;;;;;;;4998784;28;20228;-74
2023/12/13 01:56:06;;;;;;;7.27;4.23;;;;;;;;;;4997203;28;20232;-74
2023/12/13 01:58:36;;;;;;;5.10;4.03;;;;;;;;;;4999268;28;20216;-74
2023/12/13 02:01:05;;;;;;;4.63;4.20;;;;;;;;;;4999393;28;20272;-74
2023/12/13 02:03:34;;;;;;;4.97;3.93;;;;;;;;;;4998996;28;20221;-74
2023/12/13 02:06:02;;;;;;;6.27;4.00;;;;;;;;;;4999131;28;20225;-74
2023/12/13 02:08:31;;;;;;;5.90;4.30;;;;;;;;;;4999272;28;20213;-73
2023/12/13 02:10:59;;;;;;;8.03;5.13;;;;;;;;;;4998513;28;20212;-73
2023/12/13 02:13:29;;;;;;;8.20;5.17;;;;;;;;;;4998774;28;20203;-73
2023/12/13 02:15:58;;;;;;;11.53;5.40;;;;;;;;;;4998980;28;20700;-74
2023/12/13 02:18:27;;;;;;;6.50;4.53;;;;;;;;;;4999015;28;20216;-74
2023/12/13 02:20:56;;;;;;;6.03;5.40;;;;;;;;;;4999051;28;20219;-74
2023/12/13 02:23:25;;;;;;;8.60;5.33;;;;;;;;;;4998274;28;20692;-74
2023/12/13 02:25:57;;;;;;;9.07;5.67;;;;;;;;;;4998653;28;20299;-74
2023/12/13 02:28:25;;;;;;;6.17;5.23;;;;;;;;;;4998759;28;20205;-73
2023/12/13 02:30:54;;;;;;;8.50;6.13;;;;;;;;;;4998463;28;20202;-73
2023/12/13 02:33:24;;;;;;;8.50;5.40;;;;;;;;;;4996724;28;20623;-73
2023/12/13 02:35:53;;;;;;;8.63;5.60;;;;;;;;;;4998634;28;20224;-73
2023/12/13 02:38:21;;;;;;;6.13;5.27;;;;;;;;;;4997660;28;20232;-73
2023/12/13 02:40:50;;;;;;;7.10;4.70;;;;;;;;;;4993292;28;20208;-73
2023/12/13 02:43:19;;;;;;;7.10;5.03;;;;;;;;;;4998633;28;20207;-73
2023/12/13 02:45:47;;;;;;;6.27;5.53;;;;;;;;;;4998178;28;20307;-74
2023/12/13 02:48:15;;;;;;;10.97;5.90;;;;;;;;;;4998639;28;20561;-73
2023/12/13 02:50:44;;;;;;;9.47;5.87;;;;;;;;;;4997882;28;20319;-73
2023/12/13 02:53:12;;;;;;;9.07;6.00;;;;;;;;;;4998536;28;20216;-73
2023/12/13 02:55:40;;;;;;;6.50;5.43;;;;;;;;;;4997699;28;20727;-73
2023/12/13 02:58:10;;;;;;;10.27;6.00;;;;;;;;;;4998554;28;20260;-73
2023/12/13 03:00:38;;;;;;;8.80;6.53;;;;;;;;;;4997887;28;20205;-73
2023/12/13 03:03:08;;;;;;;6.87;6.17;;;;;;;;;;4998313;28;20213;-74
2023/12/13 03:05:36;;;;;;;10.77;6.27;;;;;;;;;;4997878;28;20235;-74
2023/12/13 03:08:05;;;;;;;9.67;6.73;;;;;;;;;;4998423;28;20216;-74
2023/12/13 03:10:33;;;;;;;10.30;6.97;;;;;;;;;;4997635;28;20538;-74
2023/12/13 03:13:01;;;;;;;9.57;6.40;;;;;;;;;;4993296;28;20205;-73
2023/12/13 03:15:31;;;;;;;9.20;6.60;;;;;;;;;;5001345;28;20333;-74
2023/12/13 03:17:59;;;;;;;10.60;7.00;;;;;;;;;;5001209;28;20201;-74
2023/12/13 03:20:27;;;;;;;9.80;6.97;;;;;;;;;;4994956;28;20681;-74
2023/12/13 03:22:55;;;;;;;9.73;7.70;;;;;;;;;;4991419;28;20684;-73
2023/12/13 03:25:24;;;;;;;11.00;7.57;;;;;;;;;;4997782;28;20703;-73
2023/12/13 03:27:52;;;;;;;10.20;7.63;;;;;;;;;;4997824;28;20272;-73
2023/12/13 03:30:20;;;;;;;10.57;7.93;;;;;;;;;;4997881;28;20599;-73
2023/12/13 03:32:50;;;;;;;11.73;7.63;;;;;;;;;;4997545;28;20208;-74
2023/12/13 03:35:18;;;;;;;10.20;7.37;;;;;;;;;;4997507;28;20229;-74
2023/12/13 03:37:47;;;;;;;10.63;8.40;;;;;;;;;;4997345;28;20613;-73
2023/12/13 03:40:16;;;;;;;10.73;7.97;;;;;;;;;;4997371;28;20283;-73
2023/12/13 03:42:44;;;;;;;12.17;7.83;;;;;;;;;;4996612;28;20205;-73
2023/12/13 03:45:12;;;;;;;9.63;7.43;;;;;;;;;;4997479;28;20221;-73
2023/12/13 03:47:40;;;;;;;11.47;7.13;;;;;;;;;;4998022;28;20204;-74
2023/12/13 03:50:11;;;;;;;11.87;7.50;;;;;;;;;;4997375;28;20232;-73
2023/12/13 03:52:39;;;;;;;11.20;7.73;;;;;;;;;;4997480;28;20209;-73
2023/12/13 03:55:08;;;;;;;9.40;6.73;;;;;;;;;;4997589;28;20253;-73
2023/12/13 03:57:36;;;;;;;10.70;6.90;;;;;;;;;;4997776;28;20207;-73
2023/12/13 04:00:06;;;;;;;8.77;6.97;;;;;;;;;;4997008;28;20208;-73
2023/12/13 04:02:35;;;;;;;10.67;6.73;;;;;;;;;;4997401;28;20205;-73
2023/12/13 04:05:04;;;;;;;9.70;6.57;;;;;;;;;;4987812;28;20232;-73
2023/12/13 04:07:33;;;;;;;10.13;6.37;;;;;;;;;;4997258;28;20637;-73
2023/12/13 04:10:02;;;;;;;8.87;6.33;;;;;;;;;;4997698;28;20208;-73
2023/12/13 04:12:30;;;;;;;11.67;7.43;;;;;;;;;;4997122;28;20205;-73
2023/12/13 04:14:58;;;;;;;8.60;6.30;;;;;;;;;;4997646;28;20221;-73
2023/12/13 04:17:26;;;;;;;9.33;6.10;;;;;;;;;;4997422;28;20208;-73
2023/12/13 04:19:57;;;;;;;8.33;6.30;;;;;;;;;;4997449;28;20688;-73
2023/12/13 04:22:25;;;;;;;8.03;6.10;;;;;;;;;;4995182;28;20205;-73
2023/12/13 04:24:55;;;;;;;7.53;5.67;;;;;;;;;;4997352;28;20233;-73
2023/12/13 04:27:23;;;;;;;8.60;5.73;;;;;;;;;;4990109;28;20728;-73
2023/12/13 04:29:52;;;;;;;7.53;5.77;;;;;;;;;;4997336;28;20291;-73
2023/12/13 04:32:20;;;;;;;7.63;6.03;;;;;;;;;;4997307;28;20213;-73
2023/12/13 04:34:48;;;;;;;8.83;6.47;;;;;;;;;;5000889;28;20223;-74
2023/12/13 04:37:16;;;;;;;9.10;6.53;;;;;;;;;;5000420;28;20197;-73
2023/12/13 04:39:44;;;;;;;8.60;5.53;;;;;;;;;;5001063;28;20268;-73
2023/12/13 04:42:14;;;;;;;8.50;5.53;;;;;;;;;;4999763;28;20232;-74
2023/12/13 04:44:42;;;;;;;8.50;6.20;;;;;;;;;;5000413;28;20232;-74
2023/12/13 04:47:11;;;;;;;8.67;5.77;;;;;;;;;;5000978;28;20216;-74
2023/12/13 04:49:39;;;;;;;10.33;5.93;;;;;;;;;;5000139;28;20572;-73
2023/12/13 04:52:07;;;;;;;10.50;7.27;;;;;;;;;;5000356;28;20209;-74
2023/12/13 04:54:37;;;;;;;9.53;6.77;;;;;;;;;;5000651;28;20228;-74
2023/12/13 04:57:05;;;;;;;7.77;6.47;;;;;;;;;;5000615;28;20215;-73
2023/12/13 04:59:35;;;;;;;7.10;5.70;;;;;;;;;;4996283;28;20201;-74
2023/12/13 05:02:04;;;;;;;7.43;6.20;;;;;;;;;;4992378;28;20209;-74
2023/12/13 05:04:32;;;;;;;9.30;7.53;;;;;;;;;;5000327;28;20229;-74
2023/12/13 05:07:00;;;;;;;9.70;6.77;;;;;;;;;;4999934;28;20544;-73
2023/12/13 05:09:28;;;;;;;10.33;6.87;;;;;;;;;;5000413;28;20213;-74
2023/12/13 05:11:56;;;;;;;9.67;7.03;;;;;;;;;;5000020;28;20197;-74
2023/12/13 05:14:25;;;;;;;9.77;7.43;;;;;;;;;;5000141;28;20305;-74
2023/12/13 05:16:54;;;;;;;7.47;6.70;;;;;;;;;;4999566;28;20600;-74
2023/12/13 05:19:22;;;;;;;8.80;6.63;;;;;;;;;;4999994;28;20205;-74
2023/12/13 05:21:51;;;;;;;11.47;7.13;;;;;;;;;;4999719;28;20746;-74
2023/12/13 05:24:19;;;;;;;9.40;6.83;;;;;;;;;;4999878;28;20275;-74
2023/12/13 05:26:47;;;;;;;10.37;7.07;;;;;;;;;;4992399;28;20237;-74
2023/12/13 05:29:15;;;;;;;11.83;6.30;;;;;;;;;;4999766;28;20564;-74
2023/12/13 05:31:43;;;;;;;7.53;6.50;;;;;;;;;;5000074;28;20216;-74
2023/12/13 05:34:13;;;;;;;10.80;8.37;;;;;;;;;;4999309;28;20233;-74
2023/12/13 05:36:41;;;;;;;11.67;7.77;;;;;;;;;;4999055;28;20731;-74
2023/12/13 05:39:10;;;;;;;9.93;6.70;;;;;;;;;;4998145;28;20210;-74
2023/12/13 05:41:38;;;;;;;8.47;6.10;;;;;;;;;;4999409;28;20209;-74
2023/12/13 05:44:09;;;;;;;12.63;6.80;;;;;;;;;;4999275;28;20212;-74
2023/12/13 05:46:38;;;;;;;9.17;6.67;;;;;;;;;;4998970;28;20324;-74
2023/12/13 05:49:06;;;;;;;9.13;6.80;;;;;;;;;;5001531;28;20216;-74
2023/12/13 05:51:40;;;;;;;10.13;7.37;;;;;;;;;;4999537;28;20652;-73
2023/12/13 05:54:08;;;;;;;10.13;7.10;;;;;;;;;;4999541;28;20209;-73
2023/12/13 05:56:37;;;;;;;10.63;7.43;;;;;;;;;;4999352;28;20201;-73
2023/12/13 05:59:05;;;;;;;8.97;6.90;;;;;;;;;;4999112;28;20236;-73
2023/12/13 06:01:34;;;;;;;8.63;6.73;;;;;;;;;;4996775;28;20213;-73
2023/12/13 06:04:02;;;;;;;12.77;7.77;;;;;;;;;;4998773;28;20927;-73
2023/12/13 06:06:31;;;;;;;10.67;7.20;;;;;;;;;;4999333;28;20225;-72
2023/12/13 06:09:02;;;;;;;14.47;7.63;;;;;;;;;;4999083;28;20561;-75
2023/12/13 06:11:30;;;;;;;10.47;7.27;;;;;;;;;;4998811;28;20279;-74
2023/12/13 06:13:58;;;;;;;8.40;6.53;;;;;;;;;;4997628;28;20216;-74
2023/12/13 06:16:27;;;;;;;10.23;6.97;;;;;;;;;;4998746;28;20201;-74
2023/12/13 06:18:55;;;;;;;9.20;6.73;;;;;;;;;;4998850;28;20205;-74
2023/12/13 06:21:23;;;;;;;8.57;6.63;;;;;;;;;;4990686;28;20201;-74
2023/12/13 06:23:52;;;;;;;10.27;6.70;;;;;;;;;;4998251;28;20201;-75
2023/12/13 06:26:21;;;;;;;9.63;7.17;;;;;;;;;;4998541;28;20224;-75
2023/12/13 06:28:49;;;;;;;10.00;7.57;;;;;;;;;;4996749;28;20660;-74
2023/12/13 06:31:18;;;;;;;12.70;6.83;;;;;;;;;;4999020;28;20292;-74
2023/12/13 06:33:46;;;;;;;8.57;6.53;;;;;;;;;;4997685;28;20205;-74
2023/12/13 06:36:14;;;;;;;8.80;6.47;;;;;;;;;;4998424;28;20220;-74
2023/12/13 06:38:42;;;;;;;9.00;6.97;;;;;;;;;;4998076;28;20223;-74
2023/12/13 06:41:11;;;;;;;10.03;6.07;;;;;;;;;;4997395;28;20216;-74
2023/12/13 06:43:40;;;;;;;7.47;5.63;;;;;;;;;;4995561;28;20212;-74
2023/12/13 06:46:08;;;;;;;6.73;5.43;;;;;;;;;;4985828;28;20229;-76
2023/12/13 06:48:38;;;;;;;9.87;5.83;;;;;;;;;;4998427;28;20212;-75
2023/12/13 06:51:10;;;;;;;10.73;6.43;;;;;;;;;;4994850;28;20648;-75
2023/12/13 06:53:40;;;;;;;8.80;5.47;;;;;;;;;;4997817;28;20668;-75
2023/12/13 06:56:09;;;;;;;8.43;5.33;;;;;;;;;;4997349;28;20290;-75
2023/12/13 06:58:37;;;;;;;12.00;6.83;;;;;;;;;;4997943;28;20731;-76
2023/12/13 07:01:07;;;;;;;6.97;5.90;;;;;;;;;;4998475;28;20209;-75
2023/12/13 07:03:36;;;;;;;9.30;5.60;;;;;;;;;;4997758;28;20197;-74
2023/12/13 07:06:05;;;;;;;7.90;5.00;;;;;;;;;;4997633;28;20260;-74
2023/12/13 07:08:34;;;;;;;5.47;4.17;;;;;;;;;;4997899;28;20213;-74
2023/12/13 07:11:03;;;;;;;6.33;3.50;;;;;;;;;;4997216;28;20623;-74
2023/12/13 07:13:32;;;;;;;3.33;2.87;;;;;;;;;;4997557;28;20227;-74
2023/12/13 07:16:00;;;;;;;4.17;3.00;;;;;;;;;;4997606;28;20221;-75
2023/12/13 07:18:30;;;;;;;3.63;2.87;;;;;;;;;;4994931;28;20235;-76
2023/12/13 07:20:59;;;;;;;4.90;4.40;;;;;;;;;;4995310;28;20688;-74
2023/12/13 07:23:31;;;;;;;5.60;4.10;;;;;;;;;;4997427;28;20201;-74
2023/12/13 07:26:00;;;;;;;6.30;3.53;;;;;;;;;;4983903;28;20275;-76
2023/12/13 07:28:37;;;;;;;7.87;4.80;;;;;;;;;;4992822;28;20565;-75
2023/12/13 07:31:06;;;;;;;4.17;3.40;;;;;;;;;;4997666;28;20205;-71
2023/12/13 07:33:38;;;;;;;6.03;3.83;;;;;;;;;;4997481;28;20212;-73
2023/12/13 07:36:07;;;;;;;5.10;4.20;;;;;;;;;;4997598;28;20216;-73
2023/12/13 07:38:35;;;;;;;3.43;2.93;;;;;;;;;;4996838;28;20660;-74
2023/12/13 07:41:03;;;;;;;4.03;2.53;;;;;;;;;;4997762;28;20572;-73
2023/12/13 07:43:32;;;;;;;3.77;2.77;;;;;;;;;;4997134;28;20731;-73
2023/12/13 07:46:01;;;;;;;3.63;2.20;;;;;;;;;;4997594;28;20708;-73
2023/12/13 07:48:29;;;;;;;4.23;2.10;;;;;;;;;;4997508;28;20209;-73
2023/12/13 07:51:01;;;;;;;5.10;2.37;;;;;;;;;;4997348;28;20247;-72
2023/12/13 07:53:31;;;;;;;6.80;2.37;;;;;;;;;;4996694;28;20201;-72
2023/12/13 07:55:59;;;;;;;2.17;1.53;;;;;;;;;;4993335;28;20236;-72
2023/12/13 07:58:27;;;;;;;1.97;1.50;;;;;;;;;;4990415;28;20244;-72
2023/12/13 08:00:56;;;;;;;1.87;1.33;;;;;;;;;;4997419;28;20204;-72
2023/12/13 08:03:24;;;;;;;2.17;1.20;;;;;;;;;;4995767;28;20212;-72
2023/12/13 08:05:52;;;;;;;4.10;1.50;;;;;;;;;;5000424;28;20228;-72
2023/12/13 08:08:22;;;;;;;3.30;1.40;;;;;;;;;;5001127;28;20212;-72
2023/12/13 08:10:52;;;;;;;1.47;1.30;;;;;;;;;;5001267;28;20204;-72
2023/12/13 08:13:21;;;;;;;2.70;1.60;;;;;;;;;;5001411;28;20224;-72
2023/12/13 08:15:49;;;;;;;2.60;1.50;;;;;;;;;;5000571;28;20283;-72
2023/12/13 08:18:18;;;;;;;1.87;1.37;;;;;;;;;;5001608;28;20251;-72
2023/12/13 08:20:49;;;;;;;3.43;1.60;;;;;;;;;;5004518;28;20207;-72
2023/12/13 08:23:18;;;;;;;6.00;1.87;;;;;;;;;;5004844;28;20205;-72
2023/12/13 08:25:47;;;;;;;4.07;1.50;;;;;;;;;;5001597;28;20283;-72
2023/12/13 08:28:15;;;;;;;1.73;1.50;;;;;;;;;;4998993;28;20250;-73
2023/12/13 08:30:44;;;;;;;2.10;1.47;;;;;;;;;;5002568;28;20201;-74
2023/12/13 08:33:12;;;;;;;2.27;1.30;;;;;;;;;;5002179;28;20201;-72
2023/12/13 08:35:41;;;;;;;1.80;1.50;;;;;;;;;;5002991;28;20616;-72
2023/12/13 08:38:09;;;;;;;7.47;2.17;;;;;;;;;;5000686;28;20205;-71
2023/12/13 08:40:37;;;;;;;2.50;1.13;;;;;;;;;;4998594;28;20328;-72
2023/12/13 08:43:07;;;;;;;3.87;1.20;;;;;;;;;;5001321;28;20292;-72
2023/12/13 08:45:35;;;;;;;1.43;0.90;;;;;;;;;;4988864;28;20224;-72
2023/12/13 08:48:03;;;;;;;2.90;0.90;;;;;;;;;;4998158;28;20228;-72
2023/12/13 08:50:32;;;;;;;4.30;1.30;;;;;;;;;;4997441;28;20323;-72
2023/12/13 08:53:00;;;;;;;6.03;1.50;;;;;;;;;;5000729;28;20205;-72
2023/12/13 08:55:28;;;;;;;3.53;1.40;;;;;;;;;;4998027;28;20220;-72
2023/12/13 08:57:56;;;;;;;1.20;1.20;;;;;;;;;;5000437;28;20205;-72
2023/12/13 09:00:26;;;;;;;6.37;1.00;;;;;;;;;;5000724;28;20216;-73
2023/12/13 09:02:54;;;;;;;2.10;1.07;;;;;;;;;;5000049;28;20255;-73
2023/12/13 09:05:22;;;;;;;2.47;1.50;;;;;;;;;;5000021;28;20225;-74
2023/12/13 09:07:51;;;;;;;3.57;1.03;;;;;;;;;;5000347;28;20584;-73
2023/12/13 09:10:20;;;;;;;3.97;1.40;;;;;;;;;;5000207;28;20213;-73
2023/12/13 09:12:48;;;;;;;2.57;1.30;;;;;;;;;;4994100;28;20201;-72
2023/12/13 09:15:17;;;;;;;3.00;1.50;;;;;;;;;;4999098;28;20234;-72
2023/12/13 09:17:47;;;;;;;3.43;1.53;;;;;;;;;;5000132;28;20539;-72
2023/12/13 09:20:15;;;;;;;4.03;2.10;;;;;;;;;;4999744;28;20652;-72
2023/12/13 09:22:44;;;;;;;3.90;2.30;;;;;;;;;;5000138;28;20208;-72
2023/12/13 09:25:14;;;;;;;4.07;1.83;;;;;;;;;;4999922;28;20232;-72
2023/12/13 09:27:42;;;;;;;2.10;1.77;;;;;;;;;;4993036;28;20221;-72
2023/12/13 09:30:11;;;;;;;3.20;1.87;;;;;;;;;;4999382;28;20577;-72
2023/12/13 09:32:40;;;;;;;2.63;1.43;;;;;;;;;;4997928;28;20200;-72
2023/12/13 09:35:12;;;;;;;3.47;1.50;;;;;;;;;;4999479;28;20232;-72
2023/12/13 09:37:45;;;;;;;3.67;1.70;;;;;;;;;;4999385;28;20197;-72
2023/12/13 09:40:16;;;;;;;1.53;1.33;;;;;;;;;;4999280;28;20255;-72
2023/12/13 09:42:46;;;;;;;2.40;1.50;;;;;;;;;;4999436;28;20197;-73
2023/12/13 09:45:17;;;;;;;2.90;1.83;;;;;;;;;;4999361;28;20710;-72
2023/12/13 09:47:46;;;;;;;1.10;1.00;;;;;;;;;;4999262;28;20224;-72
2023/12/13 09:50:16;;;;;;;4.73;1.07;;;;;;;;;;4999138;28;20704;-72
2023/12/13 09:52:44;;;;;;;3.27;1.13;;;;;;;;;;4999542;28;20204;-71
2023/12/13 09:55:13;;;;;;;2.07;1.00;;;;;;;;;;4998973;28;20634;-72
2023/12/13 09:57:41;;;;;;;2.50;1.00;;;;;;;;;;4999226;28;20297;-71
2023/12/13 10:00:12;;;;;;;1.67;1.10;;;;;;;;;;5000229;28;20215;-71
2023/12/13 10:02:40;;;;;;;1.70;1.20;;;;;;;;;;4993031;28;20390;-63
2023/12/13 10:05:11;;;;;;;5.30;1.30;;;;;;;;;;4996833;28;20762;-64
2023/12/13 10:07:41;;;;;;;1.87;1.10;;;;;;;;;;4999125;28;20240;-63
2023/12/13 10:10:10;;;;;;;3.53;1.10;;;;;;;;;;4998884;28;20239;-63
2023/12/13 10:12:38;;;;;;;1.80;0.83;;;;;;;;;;4999067;28;20209;-64
2023/12/13 10:15:11;;;;;;;1.63;0.93;;;;;;;;;;4998932;28;20730;-64
2023/12/13 10:17:40;;;;;;;2.30;0.90;;;;;;;;;;4995939;28;20201;-64
2023/12/13 10:20:10;;;;;;;0.97;0.97;;;;;;;;;;4998385;28;20978;-64
2023/12/13 10:22:40;;;;;;;1.97;0.80;;;;;;;;;;4998665;28;20201;-63
2023/12/13 10:25:10;;;;;;;0.63;0.63;;;;;;;;;;4998713;28;20232;-63
2023/12/13 10:27:38;;;;;;;1.90;0.77;;;;;;;;;;4990973;28;20308;-63
2023/12/13 10:30:07;;;;;;;3.13;0.90;;;;;;;;;;4998339;28;20211;-63
2023/12/13 10:32:35;;;;;;;1.47;1.10;;;;;;;;;;4987576;28;20201;-63
2023/12/13 10:35:05;;;;;;;3.03;1.20;;;;;;;;;;4998707;28;20236;-63
2023/12/13 10:37:34;;;;;;;1.40;1.30;;;;;;;;;;4988887;28;20197;-63
2023/12/13 10:40:06;;;;;;;3.67;1.83;;;;;;;;;;4995865;28;20205;-63
2023/12/13 10:42:37;;;;;;;4.80;2.17;;;;;;;;;;4997771;28;20205;-63
2023/12/13 10:45:06;;;;;;;5.10;1.70;;;;;;;;;;4998298;28;20256;-63
2023/12/13 10:47:36;;;;;;;4.50;1.50;;;;;;;;;;4998593;28;20208;-63
2023/12/13 10:50:06;;;;;;;4.23;1.40;;;;;;;;;;4998165;28;20232;-63
2023/12/13 10:52:36;;;;;;;2.07;0.97;;;;;;;;;;4998421;28;20215;-63
2023/12/13 10:55:06;;;;;;;3.63;0.70;;;;;;;;;;4998002;28;20588;-63
2023/12/13 10:57:35;;;;;;;4.13;0.93;;;;;;;;;;4998383;28;20209;-63
2023/12/13 11:00:09;;;;;;;0.77;0.53;;;;;;;;;;4987237;28;20322;-63
2023/12/13 11:02:43;;;;;;;1.20;0.80;;;;;;;;;;4997715;28;20213;-63
2023/12/13 11:05:12;;;;;;;4.73;0.63;;;;;;;;;;4997976;28;20684;-63
2023/12/13 11:07:48;;;;;;;0.87;0.40;;;;;;;;;;4992559;28;20219;-63
2023/12/13 11:10:18;;;;;;;1.33;0.63;;;;;;;;;;4998390;28;20207;-64
2023/12/13 11:12:49;;;;;;;0.40;0.40;;;;;;;;;;4997708;28;20656;-64
2023/12/13 11:15:18;;;;;;;2.67;0.70;;;;;;;;;;4998249;28;20225;-64
2023/12/13 11:17:54;;;;;;;0.40;0.40;;;;;;;;;;4996445;28;20664;-63
2023/12/13 11:20:24;;;;;;;0.87;0.50;;;;;;;;;;4992789;28;20209;-63
2023/12/13 11:22:56;;;;;;;0.67;0.60;;;;;;;;;;4997553;28;20209;-64
2023/12/13 11:25:37;;;;;;;0.40;0.40;;;;;;;;;;4997316;28;20584;-64
2023/12/13 11:28:06;;;;;;;0.40;0.37;;;;;;;;;;4997813;28;20630;-64
2023/12/13 11:30:41;;;;;;;0.40;0.40;;;;;;;;;;4997639;28;20208;-64
2023/12/13 11:33:12;;;;;;;0.37;0.37;;;;;;;;;;4997572;28;20547;-63
2023/12/13 11:35:41;;;;;;;0.63;0.47;;;;;;;;;;4996081;28;20220;-63
2023/12/13 11:38:09;;;;;;;37.90;23.37;;;;;;;;;;4993445;28;20197;-65
2023/12/13 11:40:40;;;;;;;8.00;4.60;;;;;;;;;;4997221;28;20209;-64
2023/12/13 11:43:08;;;;;;;1.63;0.90;;;;;;;;;;4998353;28;20232;-63
2023/12/13 11:45:47;;;;;;;0.50;0.50;;;;;;;;;;4994764;28;20232;-65
2023/12/13 11:48:15;;;;;;;1.43;0.40;;;;;;;;;;5001850;28;20220;-63
2023/12/13 11:50:44;;;;;;;0.50;0.50;;;;;;;;;;4994788;28;20229;-63
2023/12/13 11:53:12;;;;;;;6.43;0.50;;;;;;;;;;5001557;28;20216;-64
2023/12/13 11:55:44;;;;;;;0.60;0.60;;;;;;;;;;4996517;28;20223;-65
2023/12/13 11:58:15;;;;;;;0.30;0.30;;;;;;;;;;4997695;28;20575;-65
2023/12/13 12:00:48;;;;;;;0.47;0.47;;;;;;;;;;5000890;28;20300;-67
2023/12/13 12:03:17;;;;;;;0.57;0.57;;;;;;;;;;5001460;28;20209;-66
2023/12/13 12:05:47;;;;;;;1.00;0.50;;;;;;;;;;5000638;28;20236;-66
2023/12/13 12:08:17;;;;;;;2.20;0.67;;;;;;;;;;5001077;28;20212;-64
2023/12/13 12:10:48;;;;;;;1.90;0.60;;;;;;;;;;5000913;28;20287;-65
2023/12/13 12:13:18;;;;;;;0.87;0.57;;;;;;;;;;4997686;28;20209;-64
2023/12/13 12:15:46;;;;;;;0.77;0.50;;;;;;;;;;5001129;28;20232;-64
2023/12/13 12:18:15;;;;;;;0.40;0.40;;;;;;;;;;5001093;28;20215;-64
2023/12/13 12:20:44;;;;;;;0.50;0.40;;;;;;;;;;5000774;28;20205;-65
2023/12/13 12:23:13;;;;;;;0.53;0.50;;;;;;;;;;5000151;28;20672;-65
2023/12/13 12:25:42;;;;;;;0.50;0.40;;;;;;;;;;5000566;28;20232;-64
2023/12/13 12:28:12;;;;;;;1.03;0.40;;;;;;;;;;5000921;28;20201;-65
2023/12/13 12:30:43;;;;;;;0.50;0.50;;;;;;;;;;4994161;28;20271;-65
2023/12/13 12:33:13;;;;;;;0.57;0.33;;;;;;;;;;5000506;28;20201;-64
2023/12/13 12:35:41;;;;;;;0.30;0.30;;;;;;;;;;5000583;28;20229;-64
2023/12/13 12:38:10;;;;;;;1.00;0.50;;;;;;;;;;5000146;28;20208;-64
2023/12/13 12:40:38;;;;;;;0.40;0.40;;;;;;;;;;5000387;28;20193;-64
2023/12/13 12:43:06;;;;;;;0.70;0.37;;;;;;;;;;5000216;28;20691;-66
2023/12/13 12:45:36;;;;;;;1.83;0.40;;;;;;;;;;4999573;28;20224;-64
2023/12/13 12:48:05;;;;;;;1.13;0.40;;;;;;;;;;5000273;28;20578;-65
2023/12/13 12:50:33;;;;;;;2.37;0.60;;;;;;;;;;4991217;28;20279;-65
2023/12/13 12:53:01;;;;;;;0.70;0.40;;;;;;;;;;5000130;28;20612;-66
2023/12/13 12:55:30;;;;;;;0.83;0.47;;;;;;;;;;4999694;28;20237;-64
2023/12/13 12:57:59;;;;;;;1.70;0.60;;;;;;;;;;4999678;28;20243;-66
2023/12/13 13:00:27;;;;;;;1.10;0.80;;;;;;;;;;4999511;28;20200;-66
2023/12/13 13:02:57;;;;;;;0.93;0.83;;;;;;;;;;5000229;28;20197;-66
2023/12/13 13:05:25;;;;;;;0.50;0.50;;;;;;;;;;4999740;28;20221;-66
2023/12/13 13:07:53;;;;;;;0.40;0.40;;;;;;;;;;4998491;28;20205;-66
2023/12/13 13:10:23;;;;;;;1.00;0.40;;;;;;;;;;4999997;28;20233;-66
2023/12/13 13:12:54;;;;;;;2.53;0.47;;;;;;;;;;4997560;28;20205;-66
2023/12/13 13:15:25;;;;;;;0.40;0.40;;;;;;;;;;4998709;28;20772;-66
2023/12/13 13:17:53;;;;;;;0.67;0.67;;;;;;;;;;5003431;28;20205;-66
2023/12/13 13:20:23;;;;;;;0.70;0.70;;;;;;;;;;5003697;28;20230;-66
2023/12/13 13:22:52;;;;;;;3.23;0.53;;;;;;;;;;4998086;28;20209;-68
2023/12/13 13:25:20;;;;;;;1.53;0.63;;;;;;;;;;4999380;28;20326;-68
2023/12/13 13:27:53;;;;;;;3.67;0.53;;;;;;;;;;5000095;28;20683;-66
2023/12/13 13:30:21;;;;;;;0.63;0.60;;;;;;;;;;4999359;28;20225;-65
2023/12/13 13:32:49;;;;;;;0.50;0.50;;;;;;;;;;4999695;28;20229;-66
2023/12/13 13:35:18;;;;;;;0.60;0.60;;;;;;;;;;5002363;28;20229;-66
2023/12/13 13:37:50;;;;;;;0.40;0.40;;;;;;;;;;4994654;28;20201;-66
2023/12/13 13:40:19;;;;;;;2.17;0.70;;;;;;;;;;4999559;28;20197;-65
2023/12/13 13:42:47;;;;;;;1.87;0.40;;;;;;;;;;4999807;28;20217;-67
2023/12/13 13:45:16;;;;;;;0.60;0.40;;;;;;;;;;4999931;28;20231;-66
2023/12/13 13:47:44;;;;;;;1.40;0.80;;;;;;;;;;4999617;28;20216;-66
2023/12/13 13:50:13;;;;;;;0.90;0.43;;;;;;;;;;4999138;28;20232;-66
2023/12/13 13:52:42;;;;;;;0.70;0.70;;;;;;;;;;4999560;28;20205;-66
2023/12/13 13:55:12;;;;;;;0.43;0.43;;;;;;;;;;4999251;28;20267;-66
2023/12/13 13:57:40;;;;;;;0.93;0.60;;;;;;;;;;4999124;28;20209;-66
2023/12/13 14:00:11;;;;;;;1.93;1.00;;;;;;;;;;4999290;28;20201;-66
2023/12/13 14:02:44;;;;;;;2.27;1.70;;;;;;;;;;4999122;28;20211;-66
2023/12/13 14:05:13;;;;;;;2.70;1.80;;;;;;;;;;4999621;28;20303;-66
2023/12/13 14:07:42;;;;;;;4.77;2.03;;;;;;;;;;5002328;28;20205;-68
2023/12/13 14:10:12;;;;;;;2.70;2.07;;;;;;;;;;4998979;28;20225;-65
2023/12/13 14:12:40;;;;;;;5.03;2.30;;;;;;;;;;5002676;28;20201;-66
2023/12/13 14:15:10;;;;;;;3.70;1.50;;;;;;;;;;4999315;28;20229;-69
2023/12/13 14:17:39;;;;;;;1.30;1.20;;;;;;;;;;4999573;28;20251;-68
2023/12/13 14:20:09;;;;;;;0.80;0.80;;;;;;;;;;4995671;28;20201;-66
2023/12/13 14:22:37;;;;;;;0.60;0.60;;;;;;;;;;4993772;28;20209;-66
2023/12/13 14:25:06;;;;;;;0.60;0.60;;;;;;;;;;4998694;28;20248;-67
2023/12/13 14:27:36;;;;;;;2.37;0.73;;;;;;;;;;4998949;28;20201;-66
2023/12/13 14:30:05;;;;;;;4.07;0.97;;;;;;;;;;4998969;28;20224;-66
2023/12/13 14:32:33;;;;;;;10.40;1.70;;;;;;;;;;4999095;28;20197;-66
2023/12/13 14:35:02;;;;;;;8.00;1.33;;;;;;;;;;4998702;28;20225;-67
2023/12/13 14:37:38;;;;;;;7.27;1.20;;;;;;;;;;4998638;28;20201;-67
2023/12/13 14:40:11;;;;;;;3.47;1.03;;;;;;;;;;4998139;28;20607;-67
2023/12/13 14:42:41;;;;;;;3.27;0.70;;;;;;;;;;4998523;28;20309;-67
2023/12/13 14:45:09;;;;;;;0.70;0.50;;;;;;;;;;4997479;28;20231;-67
2023/12/13 14:47:37;;;;;;;0.40;0.40;;;;;;;;;;4998498;28;20219;-66
2023/12/13 14:50:07;;;;;;;1.17;0.40;;;;;;;;;;4997521;28;20239;-67
2023/12/13 14:52:36;;;;;;;0.80;0.80;;;;;;;;;;4998206;28;20236;-66